Terminal Aerodrome Forecast
Issued by NWS

Home | Current Version | Previous Version | Text Only | Print | Product List | Glossary On
Versions: 1 2 3 4 5 6 7 8 9 10 11 12 13 14 15 16 17 18 19 20 21
000
FTUS41 KGYX 030900 AAA
TAFLEB
TAF AMD
KLEB 030900Z 0309/0406 00000KT 2SM BR SCT001 OVC025
     FM031300 00000KT P6SM BKN015 OVC025
     FM031500 00000KT P6SM OVC025
     FM032000 00000KT P6SM BKN050=

USA.gov is the U.S. government's official web portal to all federal, state and local government web resources and services.